• Join FlightAware (Why Join?)
  • Login
  • US Flag 
04:36AM EST


 

Airport Tracker/Info


-or-


 

Live Flight TrackerFlight Track Log ✈ SKW2624 ✈ 16-Jul-2013 ✈ KSJC - KLAX

Flight Track Log - Related Links

Times and Time Zones

All times are in EDT time to prevent confusion due to time zone crossing. See the SKW2624 flight status page for this flight to view local times or setup timezone preferences in your user account.

Time Position Orientation Groundspeed Altitude Reporting Facility
EDT Latitude Longitude Course Direction KTS MPH feet Rate Location/Type
09:32PM 37.3833 -121.9500 138° Southeast 144 166 1,600  Level Northern Cal TRACON
09:33PM 37.4167 -121.9833 322° Northwest 202 232 3,600 1,800 Climbing Northern Cal TRACON
09:34PM 37.4333 -121.9333 67° East 226 260 5,100 720 Climbing Northern Cal TRACON
09:35PM 37.3833 -121.8833 142° Southeast 208 239 5,200 1,260 Climbing Northern Cal TRACON
09:36PM 37.3500 -121.8333 130° Southeast 223 257 7,800 2,220 Climbing Northern Cal TRACON
09:37PM 37.2833 -121.7667 141° Southeast 287 330 9,700 1,680 Climbing Northern Cal TRACON
09:38PM 37.0162 -121.5531 138° Southeast  Level Estimated
09:38PM 37.2167 -121.7000 141° Southeast 319 367 11,300  Level Northern Cal TRACON
09:40PM 37.1242 -121.5806 134° Southeast 355 409 13,400 1,440 Climbing Oakland Center
09:41PM 37.0453 -121.4942 139° Southeast 366 421 14,900 1,320 Climbing Oakland Center
09:42PM 36.9672 -121.4056 138° Southeast 377 434 16,200 1,200 Climbing Oakland Center
09:43PM 36.8853 -121.3167 139° Southeast 388 447 17,400 1,080 Climbing Oakland Center
09:44PM 36.7947 -121.2175 139° Southeast 393 452 18,400 900 Climbing Oakland Center
09:45PM 36.7094 -121.1250 139° Southeast 405 466 19,300 900 Climbing Oakland Center
09:46PM 36.6244 -121.0308 138° Southeast 408 470 20,300 1,020 Climbing Oakland Center
09:47PM 36.5392 -120.9347 138° Southeast 411 473 21,400 900 Climbing Oakland Center
09:48PM 36.4544 -120.8433 139° Southeast 405 466 22,200 900 Climbing Oakland Center
09:49PM 36.3692 -120.7483 138° Southeast 410 472 23,300 1,320 Climbing Oakland Center
09:50PM 36.2864 -120.6586 139° Southeast 397 457 24,900 1,440 Climbing Oakland Center
09:51PM 36.2067 -120.5747 140° Southeast 380 437 26,300 1,140 Climbing Oakland Center
09:52PM 36.1278 -120.4908 139° Southeast 374 430 27,300 780 Climbing Oakland Center
09:53PM 36.0478 -120.4047 139° Southeast 380 437 28,000 720 Climbing Oakland Center
09:54PM 35.9525 -120.3019 139° Southeast 379 436 28,800 480 Climbing Oakland Center
09:55PM 35.8703 -120.2153 139° Southeast 385 443 29,000 60 Climbing Oakland Center
09:56PM 35.7836 -120.1250 140° Southeast 399 459 29,000  Level Oakland Center
09:57PM 35.6944 -120.0292 139° Southeast 418 481 29,000  Level Oakland Center
09:58PM 35.6208 -119.9556 141° Southeast 423 487 29,000  Level Los Angeles Center
09:59PM 35.5014 -119.8531 145° Southeast 433 498 29,000  Level Los Angeles Center
10:00PM 35.4019 -119.7675 145° Southeast 435 501 29,000  Level Los Angeles Center
10:01PM 35.3019 -119.6819 145° Southeast 436 502 29,000  Level Los Angeles Center
10:02PM 35.2022 -119.5961 145° Southeast 437 503 29,000  Level Los Angeles Center
10:03PM 35.1028 -119.5103 145° Southeast 437 503 29,000  Level Los Angeles Center
10:04PM 35.0031 -119.4253 145° Southeast 436 502 29,000 -1,020 Level Los Angeles Center
10:05PM 34.9014 -119.3394 145° Southeast 442 509 27,000 -1,920 Descending Los Angeles Center
10:06PM 34.7994 -119.2542 146° Southeast 445 512 25,100 -2,280 Descending Los Angeles Center
10:07PM 34.6808 -119.1539 145° Southeast 436 502 22,300 -2,580 Descending Los Angeles Center
10:08PM 34.5792 -119.0683 145° Southeast 441 507 19,900 -2,400 Descending Los Angeles Center
10:09PM 34.4786 -118.9972 150° Southeast 415 478 17,500 -2,280 Descending Los Angeles Center
10:10PM 34.3792 -118.9383 154° Southeast 400 460 15,200 -2,220 Descending Los Angeles Center
10:12PM 34.2800 -118.8800 154° Southeast 398 458 13,000 -1,620 Descending Los Angeles Center
10:13PM 34.1872 -118.8256 154° Southeast 362 417 11,900 -1,320 Descending Los Angeles Center
10:14PM 34.1050 -118.7903 160° South 317 365 10,400 -960 Descending Los Angeles Center
10:15PM 34.0356 -118.7231 141° Southeast 308 354 10,000 -480 Descending Los Angeles Center
10:16PM 34.0247 -118.6156 97° East 301 346 9,500 -840 Descending Los Angeles Center
10:17PM 34.0150 -118.5172 97° East 296 341 8,300 -1,260 Descending Los Angeles Center
10:18PM 34.0172 -118.4231 88° East 281 323 6,900 -1,620 Descending Los Angeles Center
10:19PM 34.0294 -118.3289 81° East 280 322 5,000 -1,740 Descending Los Angeles Center
10:20PM 34.0261 -118.2458 93° East 261 300 3,400 -1,200 Descending Los Angeles Center
10:21PM 33.9761 -118.2572 191° South 203 234 2,600 -780 Descending Los Angeles Center
10:22PM 33.9611 -118.3114 252° West 180 207 1,800 -840 Descending Los Angeles Center
10:23PM 33.9575 -118.3608 265° West 142 163 900 -780 Descending Los Angeles Center
10:24PM 33.9528 -118.3989 262° West 125 144 300 -600 Descending Los Angeles Center
10:26PM 33.9333 -118.4000 228° Southwest  Level FlightAware Approximate
10:33PM 33.9425 -118.4081 228° Southwest  Level Estimated